sensor_id;sensor_type;location;lat;lon;timestamp;P1;durP1;ratioP1;P2;durP2;ratioP2
34317;SDS011;20582;52.196;20.952;2023-11-19T00:00:15;56.06;;;24.28;;
34317;SDS011;20582;52.196;20.952;2023-11-19T00:02:42;50.65;;;24.33;;
34317;SDS011;20582;52.196;20.952;2023-11-19T00:05:08;59.13;;;24.48;;
34317;SDS011;20582;52.196;20.952;2023-11-19T00:07:37;49.00;;;21.35;;
34317;SDS011;20582;52.196;20.952;2023-11-19T00:10:10;55.78;;;24.55;;
34317;SDS011;20582;52.196;20.952;2023-11-19T00:12:37;60.10;;;24.25;;
34317;SDS011;20582;52.196;20.952;2023-11-19T00:15:03;55.40;;;24.30;;
34317;SDS011;20582;52.196;20.952;2023-11-19T00:17:29;51.90;;;22.85;;
34317;SDS011;20582;52.196;20.952;2023-11-19T00:19:55;53.78;;;24.48;;
34317;SDS011;20582;52.196;20.952;2023-11-19T00:22:21;61.80;;;25.63;;
34317;SDS011;20582;52.196;20.952;2023-11-19T00:24:47;55.42;;;24.55;;
34317;SDS011;20582;52.196;20.952;2023-11-19T00:27:13;56.05;;;24.80;;
34317;SDS011;20582;52.196;20.952;2023-11-19T00:29:40;56.70;;;24.42;;
34317;SDS011;20582;52.196;20.952;2023-11-19T00:32:07;53.25;;;24.08;;
34317;SDS011;20582;52.196;20.952;2023-11-19T00:34:33;55.13;;;24.27;;
34317;SDS011;20582;52.196;20.952;2023-11-19T00:36:59;54.03;;;24.77;;
34317;SDS011;20582;52.196;20.952;2023-11-19T00:39:25;60.08;;;25.65;;
34317;SDS011;20582;52.196;20.952;2023-11-19T00:41:51;57.70;;;24.65;;
34317;SDS011;20582;52.196;20.952;2023-11-19T00:44:17;56.58;;;25.23;;
34317;SDS011;20582;52.196;20.952;2023-11-19T00:46:44;57.22;;;25.23;;
34317;SDS011;20582;52.196;20.952;2023-11-19T00:49:10;59.72;;;26.00;;
34317;SDS011;20582;52.196;20.952;2023-11-19T00:51:36;64.72;;;26.15;;
34317;SDS011;20582;52.196;20.952;2023-11-19T00:54:03;69.07;;;27.08;;
34317;SDS011;20582;52.196;20.952;2023-11-19T00:56:29;64.75;;;27.00;;
34317;SDS011;20582;52.196;20.952;2023-11-19T00:58:55;72.03;;;28.30;;
34317;SDS011;20582;52.196;20.952;2023-11-19T01:01:21;68.32;;;27.77;;
34317;SDS011;20582;52.196;20.952;2023-11-19T01:03:47;67.28;;;27.45;;
34317;SDS011;20582;52.196;20.952;2023-11-19T01:06:13;71.60;;;29.02;;
34317;SDS011;20582;52.196;20.952;2023-11-19T01:08:42;66.70;;;27.35;;
34317;SDS011;20582;52.196;20.952;2023-11-19T01:11:08;65.57;;;26.80;;
34317;SDS011;20582;52.196;20.952;2023-11-19T01:13:34;68.82;;;28.10;;
34317;SDS011;20582;52.196;20.952;2023-11-19T01:16:00;62.78;;;26.48;;
34317;SDS011;20582;52.196;20.952;2023-11-19T01:18:27;63.05;;;26.17;;
34317;SDS011;20582;52.196;20.952;2023-11-19T01:20:53;66.53;;;28.83;;
34317;SDS011;20582;52.196;20.952;2023-11-19T01:23:19;58.72;;;24.10;;
34317;SDS011;20582;52.196;20.952;2023-11-19T01:25:45;57.72;;;24.52;;
34317;SDS011;20582;52.196;20.952;2023-11-19T01:28:11;56.17;;;24.13;;
34317;SDS011;20582;52.196;20.952;2023-11-19T01:30:37;59.53;;;22.98;;
34317;SDS011;20582;52.196;20.952;2023-11-19T01:33:02;51.45;;;23.42;;
34317;SDS011;20582;52.196;20.952;2023-11-19T01:35:28;59.00;;;25.45;;
34317;SDS011;20582;52.196;20.952;2023-11-19T01:37:54;56.92;;;23.20;;
34317;SDS011;20582;52.196;20.952;2023-11-19T01:40:21;54.25;;;22.73;;
34317;SDS011;20582;52.196;20.952;2023-11-19T01:42:47;54.05;;;22.35;;
34317;SDS011;20582;52.196;20.952;2023-11-19T01:45:22;58.70;;;23.33;;
34317;SDS011;20582;52.196;20.952;2023-11-19T01:47:53;58.28;;;24.98;;
34317;SDS011;20582;52.196;20.952;2023-11-19T01:50:19;57.75;;;24.58;;
34317;SDS011;20582;52.196;20.952;2023-11-19T01:52:45;57.28;;;23.95;;
34317;SDS011;20582;52.196;20.952;2023-11-19T01:55:12;60.78;;;26.10;;
34317;SDS011;20582;52.196;20.952;2023-11-19T01:57:38;59.53;;;24.33;;
34317;SDS011;20582;52.196;20.952;2023-11-19T02:00:06;63.97;;;25.20;;
34317;SDS011;20582;52.196;20.952;2023-11-19T02:02:36;62.67;;;24.98;;
34317;SDS011;20582;52.196;20.952;2023-11-19T02:05:02;65.75;;;26.35;;
34317;SDS011;20582;52.196;20.952;2023-11-19T02:07:28;65.22;;;24.67;;
34317;SDS011;20582;52.196;20.952;2023-11-19T02:09:54;63.83;;;25.52;;
34317;SDS011;20582;52.196;20.952;2023-11-19T02:12:23;66.07;;;26.48;;
34317;SDS011;20582;52.196;20.952;2023-11-19T02:14:49;67.82;;;25.08;;
34317;SDS011;20582;52.196;20.952;2023-11-19T02:17:24;73.18;;;24.85;;
34317;SDS011;20582;52.196;20.952;2023-11-19T02:19:51;64.97;;;24.20;;
34317;SDS011;20582;52.196;20.952;2023-11-19T02:22:17;69.22;;;23.55;;
34317;SDS011;20582;52.196;20.952;2023-11-19T02:24:43;73.57;;;27.20;;
34317;SDS011;20582;52.196;20.952;2023-11-19T02:27:10;70.28;;;25.98;;
34317;SDS011;20582;52.196;20.952;2023-11-19T02:29:41;63.80;;;24.63;;
34317;SDS011;20582;52.196;20.952;2023-11-19T02:32:07;70.32;;;25.73;;
34317;SDS011;20582;52.196;20.952;2023-11-19T02:34:34;72.93;;;25.77;;
34317;SDS011;20582;52.196;20.952;2023-11-19T02:37:00;69.32;;;25.08;;
34317;SDS011;20582;52.196;20.952;2023-11-19T02:39:26;60.90;;;23.63;;
34317;SDS011;20582;52.196;20.952;2023-11-19T02:41:53;63.55;;;23.42;;
34317;SDS011;20582;52.196;20.952;2023-11-19T02:44:19;60.65;;;24.20;;
34317;SDS011;20582;52.196;20.952;2023-11-19T02:46:45;63.90;;;25.55;;
34317;SDS011;20582;52.196;20.952;2023-11-19T02:49:13;66.53;;;26.27;;
34317;SDS011;20582;52.196;20.952;2023-11-19T02:51:39;63.88;;;23.73;;
34317;SDS011;20582;52.196;20.952;2023-11-19T02:54:05;59.20;;;23.75;;
34317;SDS011;20582;52.196;20.952;2023-11-19T02:56:31;68.15;;;24.65;;
34317;SDS011;20582;52.196;20.952;2023-11-19T02:59:00;65.80;;;23.85;;
34317;SDS011;20582;52.196;20.952;2023-11-19T03:01:38;63.47;;;23.35;;
34317;SDS011;20582;52.196;20.952;2023-11-19T03:04:08;65.68;;;24.45;;
34317;SDS011;20582;52.196;20.952;2023-11-19T03:06:37;59.05;;;22.02;;
34317;SDS011;20582;52.196;20.952;2023-11-19T03:09:03;56.42;;;22.48;;
34317;SDS011;20582;52.196;20.952;2023-11-19T03:11:35;63.05;;;24.35;;
34317;SDS011;20582;52.196;20.952;2023-11-19T03:14:01;61.25;;;24.33;;
34317;SDS011;20582;52.196;20.952;2023-11-19T03:16:28;60.50;;;24.48;;
34317;SDS011;20582;52.196;20.952;2023-11-19T03:18:54;59.65;;;24.17;;
34317;SDS011;20582;52.196;20.952;2023-11-19T03:21:27;57.45;;;23.05;;
34317;SDS011;20582;52.196;20.952;2023-11-19T03:23:53;61.88;;;24.05;;
34317;SDS011;20582;52.196;20.952;2023-11-19T03:26:18;60.60;;;24.45;;
34317;SDS011;20582;52.196;20.952;2023-11-19T03:28:44;63.13;;;24.58;;
34317;SDS011;20582;52.196;20.952;2023-11-19T03:31:10;62.63;;;24.45;;
34317;SDS011;20582;52.196;20.952;2023-11-19T03:33:36;53.47;;;22.85;;
34317;SDS011;20582;52.196;20.952;2023-11-19T03:36:02;60.25;;;22.88;;
34317;SDS011;20582;52.196;20.952;2023-11-19T03:38:28;53.28;;;23.13;;
34317;SDS011;20582;52.196;20.952;2023-11-19T03:40:54;51.70;;;22.20;;
34317;SDS011;20582;52.196;20.952;2023-11-19T03:43:20;57.47;;;23.00;;
34317;SDS011;20582;52.196;20.952;2023-11-19T03:45:46;64.85;;;24.27;;
34317;SDS011;20582;52.196;20.952;2023-11-19T03:48:13;60.60;;;22.83;;
34317;SDS011;20582;52.196;20.952;2023-11-19T03:50:41;55.92;;;23.20;;
34317;SDS011;20582;52.196;20.952;2023-11-19T03:53:07;56.72;;;21.63;;
34317;SDS011;20582;52.196;20.952;2023-11-19T03:55:33;58.53;;;22.92;;
34317;SDS011;20582;52.196;20.952;2023-11-19T03:57:59;54.67;;;21.98;;
34317;SDS011;20582;52.196;20.952;2023-11-19T04:00:25;50.38;;;21.52;;
34317;SDS011;20582;52.196;20.952;2023-11-19T04:02:52;52.30;;;21.77;;
34317;SDS011;20582;52.196;20.952;2023-11-19T04:05:18;51.88;;;21.70;;
34317;SDS011;20582;52.196;20.952;2023-11-19T04:07:44;51.90;;;20.88;;
34317;SDS011;20582;52.196;20.952;2023-11-19T04:10:10;49.08;;;20.65;;
34317;SDS011;20582;52.196;20.952;2023-11-19T04:12:36;51.83;;;20.80;;
34317;SDS011;20582;52.196;20.952;2023-11-19T04:15:02;56.78;;;22.50;;
34317;SDS011;20582;52.196;20.952;2023-11-19T04:17:29;49.28;;;19.40;;
34317;SDS011;20582;52.196;20.952;2023-11-19T04:19:55;55.28;;;21.25;;
34317;SDS011;20582;52.196;20.952;2023-11-19T04:22:21;53.38;;;20.48;;
34317;SDS011;20582;52.196;20.952;2023-11-19T04:24:47;53.10;;;21.20;;
34317;SDS011;20582;52.196;20.952;2023-11-19T04:27:13;52.22;;;22.08;;
34317;SDS011;20582;52.196;20.952;2023-11-19T04:29:39;48.63;;;19.70;;
34317;SDS011;20582;52.196;20.952;2023-11-19T04:32:05;48.38;;;21.30;;
34317;SDS011;20582;52.196;20.952;2023-11-19T04:34:32;46.88;;;20.10;;
34317;SDS011;20582;52.196;20.952;2023-11-19T04:36:58;44.63;;;18.08;;
34317;SDS011;20582;52.196;20.952;2023-11-19T04:39:28;52.50;;;20.83;;
34317;SDS011;20582;52.196;20.952;2023-11-19T04:41:54;47.08;;;19.85;;
34317;SDS011;20582;52.196;20.952;2023-11-19T04:44:20;50.15;;;18.67;;
34317;SDS011;20582;52.196;20.952;2023-11-19T04:46:47;45.67;;;19.15;;
34317;SDS011;20582;52.196;20.952;2023-11-19T04:49:13;55.33;;;19.73;;
34317;SDS011;20582;52.196;20.952;2023-11-19T04:51:42;51.50;;;19.58;;
34317;SDS011;20582;52.196;20.952;2023-11-19T04:54:09;50.78;;;19.83;;
34317;SDS011;20582;52.196;20.952;2023-11-19T04:56:38;53.95;;;20.42;;
34317;SDS011;20582;52.196;20.952;2023-11-19T04:59:04;55.67;;;21.55;;
34317;SDS011;20582;52.196;20.952;2023-11-19T05:01:31;53.65;;;20.23;;
34317;SDS011;20582;52.196;20.952;2023-11-19T05:03:57;51.63;;;20.40;;
34317;SDS011;20582;52.196;20.952;2023-11-19T05:06:30;54.50;;;19.55;;
34317;SDS011;20582;52.196;20.952;2023-11-19T05:08:56;48.22;;;19.40;;
34317;SDS011;20582;52.196;20.952;2023-11-19T05:11:22;52.65;;;21.50;;
34317;SDS011;20582;52.196;20.952;2023-11-19T05:13:48;53.40;;;19.50;;
34317;SDS011;20582;52.196;20.952;2023-11-19T05:16:15;53.58;;;21.05;;
34317;SDS011;20582;52.196;20.952;2023-11-19T05:18:41;50.42;;;19.33;;
34317;SDS011;20582;52.196;20.952;2023-11-19T05:21:07;54.80;;;21.50;;
34317;SDS011;20582;52.196;20.952;2023-11-19T05:23:33;50.17;;;18.88;;
34317;SDS011;20582;52.196;20.952;2023-11-19T05:26:00;53.75;;;20.92;;
34317;SDS011;20582;52.196;20.952;2023-11-19T05:28:26;55.63;;;21.02;;
34317;SDS011;20582;52.196;20.952;2023-11-19T05:30:52;57.08;;;22.48;;
34317;SDS011;20582;52.196;20.952;2023-11-19T05:33:18;55.95;;;20.80;;
34317;SDS011;20582;52.196;20.952;2023-11-19T05:35:44;52.22;;;19.85;;
34317;SDS011;20582;52.196;20.952;2023-11-19T05:38:10;57.70;;;20.35;;
34317;SDS011;20582;52.196;20.952;2023-11-19T05:40:36;53.97;;;20.83;;
34317;SDS011;20582;52.196;20.952;2023-11-19T05:43:03;58.42;;;21.35;;
34317;SDS011;20582;52.196;20.952;2023-11-19T05:45:30;53.13;;;19.88;;
34317;SDS011;20582;52.196;20.952;2023-11-19T05:47:56;57.33;;;21.23;;
34317;SDS011;20582;52.196;20.952;2023-11-19T05:50:22;52.97;;;19.15;;
34317;SDS011;20582;52.196;20.952;2023-11-19T05:52:50;59.97;;;22.25;;
34317;SDS011;20582;52.196;20.952;2023-11-19T05:55:18;54.60;;;21.38;;
34317;SDS011;20582;52.196;20.952;2023-11-19T05:57:44;57.55;;;21.83;;
34317;SDS011;20582;52.196;20.952;2023-11-19T06:00:10;51.03;;;19.98;;
34317;SDS011;20582;52.196;20.952;2023-11-19T06:02:38;48.03;;;18.83;;
34317;SDS011;20582;52.196;20.952;2023-11-19T06:05:04;47.55;;;17.73;;
34317;SDS011;20582;52.196;20.952;2023-11-19T06:07:31;46.67;;;18.42;;
34317;SDS011;20582;52.196;20.952;2023-11-19T06:09:58;45.22;;;18.42;;
34317;SDS011;20582;52.196;20.952;2023-11-19T06:12:23;39.45;;;16.88;;
34317;SDS011;20582;52.196;20.952;2023-11-19T06:14:49;34.63;;;14.35;;
34317;SDS011;20582;52.196;20.952;2023-11-19T06:17:15;35.30;;;13.95;;
34317;SDS011;20582;52.196;20.952;2023-11-19T06:19:41;37.58;;;14.68;;
34317;SDS011;20582;52.196;20.952;2023-11-19T06:22:07;30.65;;;12.27;;
34317;SDS011;20582;52.196;20.952;2023-11-19T06:24:33;28.92;;;11.68;;
34317;SDS011;20582;52.196;20.952;2023-11-19T06:26:59;29.75;;;12.93;;
34317;SDS011;20582;52.196;20.952;2023-11-19T06:29:25;25.45;;;10.95;;
34317;SDS011;20582;52.196;20.952;2023-11-19T06:31:51;24.30;;;10.32;;
34317;SDS011;20582;52.196;20.952;2023-11-19T06:34:17;23.02;;;10.07;;
34317;SDS011;20582;52.196;20.952;2023-11-19T06:36:43;20.65;;;8.93;;
34317;SDS011;20582;52.196;20.952;2023-11-19T06:39:09;20.15;;;9.18;;
34317;SDS011;20582;52.196;20.952;2023-11-19T06:41:36;19.33;;;9.65;;
34317;SDS011;20582;52.196;20.952;2023-11-19T06:44:04;19.42;;;8.93;;
34317;SDS011;20582;52.196;20.952;2023-11-19T06:46:30;19.17;;;9.00;;
34317;SDS011;20582;52.196;20.952;2023-11-19T06:48:56;22.08;;;10.15;;
34317;SDS011;20582;52.196;20.952;2023-11-19T06:51:22;22.90;;;10.00;;
34317;SDS011;20582;52.196;20.952;2023-11-19T06:53:49;22.25;;;10.35;;
34317;SDS011;20582;52.196;20.952;2023-11-19T06:56:21;21.10;;;9.70;;
34317;SDS011;20582;52.196;20.952;2023-11-19T06:58:47;19.92;;;9.52;;
34317;SDS011;20582;52.196;20.952;2023-11-19T07:01:17;19.27;;;8.93;;
34317;SDS011;20582;52.196;20.952;2023-11-19T07:03:44;21.35;;;10.15;;
34317;SDS011;20582;52.196;20.952;2023-11-19T07:06:11;22.30;;;10.98;;
34317;SDS011;20582;52.196;20.952;2023-11-19T07:08:43;19.95;;;9.48;;
34317;SDS011;20582;52.196;20.952;2023-11-19T07:11:09;21.17;;;10.27;;
34317;SDS011;20582;52.196;20.952;2023-11-19T07:13:36;19.38;;;10.02;;
34317;SDS011;20582;52.196;20.952;2023-11-19T07:16:03;20.52;;;9.80;;
34317;SDS011;20582;52.196;20.952;2023-11-19T07:18:29;19.15;;;9.13;;
34317;SDS011;20582;52.196;20.952;2023-11-19T07:20:56;21.42;;;9.75;;
34317;SDS011;20582;52.196;20.952;2023-11-19T07:23:22;17.35;;;8.57;;
34317;SDS011;20582;52.196;20.952;2023-11-19T07:25:48;21.25;;;10.38;;
34317;SDS011;20582;52.196;20.952;2023-11-19T07:28:17;19.85;;;9.43;;
34317;SDS011;20582;52.196;20.952;2023-11-19T07:30:43;20.83;;;10.10;;
34317;SDS011;20582;52.196;20.952;2023-11-19T07:33:09;21.83;;;9.93;;
34317;SDS011;20582;52.196;20.952;2023-11-19T07:35:35;22.15;;;10.75;;
34317;SDS011;20582;52.196;20.952;2023-11-19T07:38:00;21.55;;;10.32;;
34317;SDS011;20582;52.196;20.952;2023-11-19T07:40:27;21.48;;;10.65;;
34317;SDS011;20582;52.196;20.952;2023-11-19T07:42:53;21.63;;;10.27;;
34317;SDS011;20582;52.196;20.952;2023-11-19T07:45:19;20.52;;;9.93;;
34317;SDS011;20582;52.196;20.952;2023-11-19T07:47:46;20.13;;;10.00;;
34317;SDS011;20582;52.196;20.952;2023-11-19T07:50:12;22.92;;;11.38;;
34317;SDS011;20582;52.196;20.952;2023-11-19T07:52:39;21.20;;;10.73;;
34317;SDS011;20582;52.196;20.952;2023-11-19T07:55:05;22.80;;;11.13;;
34317;SDS011;20582;52.196;20.952;2023-11-19T07:57:31;25.38;;;12.48;;
34317;SDS011;20582;52.196;20.952;2023-11-19T07:59:57;21.63;;;10.82;;
34317;SDS011;20582;52.196;20.952;2023-11-19T08:02:23;25.60;;;12.23;;
34317;SDS011;20582;52.196;20.952;2023-11-19T08:04:49;26.25;;;12.50;;
34317;SDS011;20582;52.196;20.952;2023-11-19T08:07:17;22.20;;;10.98;;
34317;SDS011;20582;52.196;20.952;2023-11-19T08:09:44;25.42;;;12.13;;
34317;SDS011;20582;52.196;20.952;2023-11-19T08:12:10;24.35;;;11.30;;
34317;SDS011;20582;52.196;20.952;2023-11-19T08:14:39;21.38;;;11.23;;
34317;SDS011;20582;52.196;20.952;2023-11-19T08:17:05;21.58;;;10.23;;
34317;SDS011;20582;52.196;20.952;2023-11-19T08:19:31;23.33;;;11.50;;
34317;SDS011;20582;52.196;20.952;2023-11-19T08:21:57;24.80;;;11.30;;
34317;SDS011;20582;52.196;20.952;2023-11-19T08:24:23;25.05;;;11.95;;
34317;SDS011;20582;52.196;20.952;2023-11-19T08:26:49;23.23;;;11.18;;
34317;SDS011;20582;52.196;20.952;2023-11-19T08:29:15;24.33;;;12.05;;
34317;SDS011;20582;52.196;20.952;2023-11-19T08:31:41;26.40;;;13.18;;
34317;SDS011;20582;52.196;20.952;2023-11-19T08:34:08;24.75;;;11.63;;
34317;SDS011;20582;52.196;20.952;2023-11-19T08:36:34;26.10;;;11.80;;
34317;SDS011;20582;52.196;20.952;2023-11-19T08:39:00;26.00;;;11.90;;
34317;SDS011;20582;52.196;20.952;2023-11-19T08:41:26;27.15;;;12.30;;
34317;SDS011;20582;52.196;20.952;2023-11-19T08:43:52;25.67;;;11.98;;
34317;SDS011;20582;52.196;20.952;2023-11-19T08:46:18;24.88;;;12.43;;
34317;SDS011;20582;52.196;20.952;2023-11-19T08:48:44;26.17;;;12.05;;
34317;SDS011;20582;52.196;20.952;2023-11-19T08:51:11;27.08;;;12.30;;
34317;SDS011;20582;52.196;20.952;2023-11-19T08:53:37;27.08;;;12.70;;
34317;SDS011;20582;52.196;20.952;2023-11-19T08:56:03;25.85;;;11.82;;
34317;SDS011;20582;52.196;20.952;2023-11-19T08:58:29;25.55;;;12.30;;
34317;SDS011;20582;52.196;20.952;2023-11-19T09:00:55;26.98;;;12.45;;
34317;SDS011;20582;52.196;20.952;2023-11-19T09:03:21;26.38;;;11.73;;
34317;SDS011;20582;52.196;20.952;2023-11-19T09:05:47;27.55;;;12.85;;
34317;SDS011;20582;52.196;20.952;2023-11-19T09:08:13;26.52;;;12.02;;
34317;SDS011;20582;52.196;20.952;2023-11-19T09:10:39;26.75;;;12.55;;
34317;SDS011;20582;52.196;20.952;2023-11-19T09:13:05;28.75;;;12.90;;
34317;SDS011;20582;52.196;20.952;2023-11-19T09:15:31;28.25;;;11.93;;
34317;SDS011;20582;52.196;20.952;2023-11-19T09:17:57;25.00;;;11.40;;
34317;SDS011;20582;52.196;20.952;2023-11-19T09:20:23;23.88;;;12.10;;
34317;SDS011;20582;52.196;20.952;2023-11-19T09:22:49;27.67;;;12.77;;
34317;SDS011;20582;52.196;20.952;2023-11-19T09:25:16;23.10;;;11.38;;
34317;SDS011;20582;52.196;20.952;2023-11-19T09:27:42;24.95;;;12.13;;
34317;SDS011;20582;52.196;20.952;2023-11-19T09:30:08;26.80;;;11.88;;
34317;SDS011;20582;52.196;20.952;2023-11-19T09:32:34;24.73;;;11.30;;
34317;SDS011;20582;52.196;20.952;2023-11-19T09:35:02;26.17;;;12.55;;
34317;SDS011;20582;52.196;20.952;2023-11-19T09:37:28;23.80;;;12.05;;
34317;SDS011;20582;52.196;20.952;2023-11-19T09:39:54;25.13;;;12.55;;
34317;SDS011;20582;52.196;20.952;2023-11-19T09:42:20;24.67;;;12.30;;
34317;SDS011;20582;52.196;20.952;2023-11-19T09:44:47;29.23;;;13.27;;
34317;SDS011;20582;52.196;20.952;2023-11-19T09:47:14;28.13;;;14.10;;
34317;SDS011;20582;52.196;20.952;2023-11-19T09:49:42;25.63;;;11.85;;
34317;SDS011;20582;52.196;20.952;2023-11-19T09:52:08;26.45;;;13.27;;
34317;SDS011;20582;52.196;20.952;2023-11-19T09:54:34;29.17;;;13.98;;
34317;SDS011;20582;52.196;20.952;2023-11-19T09:57:01;25.15;;;12.48;;
34317;SDS011;20582;52.196;20.952;2023-11-19T09:59:29;25.95;;;12.75;;
34317;SDS011;20582;52.196;20.952;2023-11-19T10:01:55;24.63;;;12.95;;
34317;SDS011;20582;52.196;20.952;2023-11-19T10:04:22;29.40;;;13.65;;
34317;SDS011;20582;52.196;20.952;2023-11-19T10:06:48;25.23;;;12.85;;
34317;SDS011;20582;52.196;20.952;2023-11-19T10:09:15;25.65;;;13.60;;
34317;SDS011;20582;52.196;20.952;2023-11-19T10:11:41;29.20;;;14.15;;
34317;SDS011;20582;52.196;20.952;2023-11-19T10:14:07;27.75;;;13.07;;
34317;SDS011;20582;52.196;20.952;2023-11-19T10:16:34;29.38;;;12.88;;
34317;SDS011;20582;52.196;20.952;2023-11-19T10:19:00;26.60;;;13.25;;
34317;SDS011;20582;52.196;20.952;2023-11-19T10:21:26;27.63;;;13.85;;
34317;SDS011;20582;52.196;20.952;2023-11-19T10:23:56;25.60;;;12.82;;
34317;SDS011;20582;52.196;20.952;2023-11-19T10:26:24;28.60;;;13.32;;
34317;SDS011;20582;52.196;20.952;2023-11-19T10:28:50;29.00;;;13.05;;
34317;SDS011;20582;52.196;20.952;2023-11-19T10:31:17;29.45;;;14.35;;
34317;SDS011;20582;52.196;20.952;2023-11-19T10:33:43;31.00;;;13.75;;
34317;SDS011;20582;52.196;20.952;2023-11-19T10:36:10;31.92;;;13.57;;
34317;SDS011;20582;52.196;20.952;2023-11-19T10:38:39;34.92;;;14.38;;
34317;SDS011;20582;52.196;20.952;2023-11-19T10:41:06;30.27;;;14.52;;
34317;SDS011;20582;52.196;20.952;2023-11-19T10:43:42;29.17;;;13.93;;
34317;SDS011;20582;52.196;20.952;2023-11-19T10:46:12;30.70;;;13.88;;
34317;SDS011;20582;52.196;20.952;2023-11-19T10:48:39;28.77;;;13.88;;
34317;SDS011;20582;52.196;20.952;2023-11-19T10:51:05;31.75;;;15.25;;
34317;SDS011;20582;52.196;20.952;2023-11-19T10:53:39;28.15;;;14.00;;
34317;SDS011;20582;52.196;20.952;2023-11-19T10:56:10;26.92;;;13.43;;
34317;SDS011;20582;52.196;20.952;2023-11-19T10:58:37;28.80;;;13.30;;
34317;SDS011;20582;52.196;20.952;2023-11-19T11:01:03;27.83;;;14.30;;
34317;SDS011;20582;52.196;20.952;2023-11-19T11:03:43;27.40;;;13.55;;
34317;SDS011;20582;52.196;20.952;2023-11-19T11:06:11;31.15;;;14.55;;
34317;SDS011;20582;52.196;20.952;2023-11-19T11:08:38;30.60;;;13.93;;
34317;SDS011;20582;52.196;20.952;2023-11-19T11:11:04;32.05;;;14.18;;
34317;SDS011;20582;52.196;20.952;2023-11-19T11:13:31;28.75;;;13.88;;
34317;SDS011;20582;52.196;20.952;2023-11-19T11:15:57;33.60;;;14.82;;
34317;SDS011;20582;52.196;20.952;2023-11-19T11:18:24;30.70;;;13.73;;
34317;SDS011;20582;52.196;20.952;2023-11-19T11:20:51;27.02;;;12.98;;
34317;SDS011;20582;52.196;20.952;2023-11-19T11:28:26;30.20;;;14.13;;
34317;SDS011;20582;52.196;20.952;2023-11-19T11:31:07;32.55;;;15.55;;
34317;SDS011;20582;52.196;20.952;2023-11-19T11:36:20;31.52;;;14.80;;
34317;SDS011;20582;52.196;20.952;2023-11-19T11:38:50;30.77;;;14.25;;
34317;SDS011;20582;52.196;20.952;2023-11-19T11:41:21;30.30;;;14.60;;
34317;SDS011;20582;52.196;20.952;2023-11-19T11:43:48;31.48;;;14.98;;
34317;SDS011;20582;52.196;20.952;2023-11-19T11:49:03;31.05;;;14.57;;
34317;SDS011;20582;52.196;20.952;2023-11-19T11:54:11;31.40;;;14.77;;
34317;SDS011;20582;52.196;20.952;2023-11-19T11:56:37;30.63;;;14.73;;
34317;SDS011;20582;52.196;20.952;2023-11-19T11:59:07;32.65;;;15.55;;
34317;SDS011;20582;52.196;20.952;2023-11-19T12:01:33;33.35;;;15.15;;
34317;SDS011;20582;52.196;20.952;2023-11-19T12:04:00;31.67;;;14.88;;
34317;SDS011;20582;52.196;20.952;2023-11-19T12:06:27;31.17;;;14.85;;
34317;SDS011;20582;52.196;20.952;2023-11-19T12:08:59;31.20;;;15.02;;
34317;SDS011;20582;52.196;20.952;2023-11-19T12:11:25;34.67;;;15.30;;
34317;SDS011;20582;52.196;20.952;2023-11-19T12:13:53;35.22;;;15.82;;
34317;SDS011;20582;52.196;20.952;2023-11-19T12:16:27;33.83;;;15.63;;
34317;SDS011;20582;52.196;20.952;2023-11-19T12:18:54;32.70;;;15.05;;
34317;SDS011;20582;52.196;20.952;2023-11-19T12:21:27;32.30;;;16.17;;
34317;SDS011;20582;52.196;20.952;2023-11-19T12:23:54;33.67;;;14.32;;
34317;SDS011;20582;52.196;20.952;2023-11-19T12:26:31;34.60;;;15.75;;
34317;SDS011;20582;52.196;20.952;2023-11-19T12:29:01;32.85;;;14.88;;
34317;SDS011;20582;52.196;20.952;2023-11-19T12:31:28;33.33;;;14.50;;
34317;SDS011;20582;52.196;20.952;2023-11-19T12:33:55;33.53;;;15.57;;
34317;SDS011;20582;52.196;20.952;2023-11-19T12:36:21;34.53;;;16.25;;
34317;SDS011;20582;52.196;20.952;2023-11-19T12:38:47;30.85;;;15.07;;
34317;SDS011;20582;52.196;20.952;2023-11-19T12:41:14;33.85;;;15.32;;
34317;SDS011;20582;52.196;20.952;2023-11-19T12:43:45;31.33;;;14.93;;
34317;SDS011;20582;52.196;20.952;2023-11-19T12:46:18;32.03;;;14.95;;
34317;SDS011;20582;52.196;20.952;2023-11-19T12:48:45;33.28;;;15.10;;
34317;SDS011;20582;52.196;20.952;2023-11-19T12:51:11;32.97;;;14.10;;
34317;SDS011;20582;52.196;20.952;2023-11-19T12:53:50;30.00;;;14.57;;
34317;SDS011;20582;52.196;20.952;2023-11-19T12:56:19;30.60;;;14.40;;
34317;SDS011;20582;52.196;20.952;2023-11-19T12:58:45;31.00;;;15.35;;
34317;SDS011;20582;52.196;20.952;2023-11-19T13:01:14;31.27;;;13.52;;
34317;SDS011;20582;52.196;20.952;2023-11-19T13:03:41;29.42;;;14.27;;
34317;SDS011;20582;52.196;20.952;2023-11-19T13:06:07;31.48;;;14.68;;
34317;SDS011;20582;52.196;20.952;2023-11-19T13:08:43;30.95;;;14.82;;
34317;SDS011;20582;52.196;20.952;2023-11-19T13:11:09;28.90;;;13.68;;
34317;SDS011;20582;52.196;20.952;2023-11-19T13:16:20;31.50;;;14.77;;
34317;SDS011;20582;52.196;20.952;2023-11-19T13:18:47;29.10;;;14.10;;
34317;SDS011;20582;52.196;20.952;2023-11-19T13:21:13;34.47;;;14.75;;
34317;SDS011;20582;52.196;20.952;2023-11-19T13:23:39;30.25;;;14.45;;
34317;SDS011;20582;52.196;20.952;2023-11-19T13:26:05;35.55;;;15.90;;
34317;SDS011;20582;52.196;20.952;2023-11-19T13:28:32;43.72;;;19.20;;
34317;SDS011;20582;52.196;20.952;2023-11-19T13:30:58;52.80;;;21.75;;
34317;SDS011;20582;52.196;20.952;2023-11-19T13:33:24;42.67;;;19.52;;
34317;SDS011;20582;52.196;20.952;2023-11-19T13:35:51;36.38;;;18.15;;
34317;SDS011;20582;52.196;20.952;2023-11-19T13:38:18;35.30;;;15.95;;
34317;SDS011;20582;52.196;20.952;2023-11-19T13:40:44;36.63;;;15.70;;
34317;SDS011;20582;52.196;20.952;2023-11-19T13:43:10;37.05;;;15.73;;
34317;SDS011;20582;52.196;20.952;2023-11-19T13:45:36;33.90;;;14.63;;
34317;SDS011;20582;52.196;20.952;2023-11-19T13:48:02;33.35;;;16.83;;
34317;SDS011;20582;52.196;20.952;2023-11-19T13:50:28;35.30;;;15.48;;
34317;SDS011;20582;52.196;20.952;2023-11-19T13:52:54;36.50;;;17.67;;
34317;SDS011;20582;52.196;20.952;2023-11-19T13:55:20;36.28;;;17.08;;
34317;SDS011;20582;52.196;20.952;2023-11-19T13:57:47;35.78;;;16.08;;
34317;SDS011;20582;52.196;20.952;2023-11-19T14:00:14;36.35;;;16.00;;
34317;SDS011;20582;52.196;20.952;2023-11-19T14:02:44;34.33;;;16.98;;
34317;SDS011;20582;52.196;20.952;2023-11-19T14:05:10;30.88;;;14.70;;
34317;SDS011;20582;52.196;20.952;2023-11-19T14:07:36;38.05;;;17.55;;
34317;SDS011;20582;52.196;20.952;2023-11-19T14:10:02;38.20;;;16.38;;
34317;SDS011;20582;52.196;20.952;2023-11-19T14:12:30;37.35;;;16.55;;
34317;SDS011;20582;52.196;20.952;2023-11-19T14:14:57;40.55;;;17.25;;
34317;SDS011;20582;52.196;20.952;2023-11-19T14:17:23;39.25;;;17.55;;
34317;SDS011;20582;52.196;20.952;2023-11-19T14:19:52;42.63;;;17.58;;
34317;SDS011;20582;52.196;20.952;2023-11-19T14:22:18;38.35;;;17.25;;